RYR672C EPWR-EBCI
Flight info
| Callsign | RYR672C |
|---|---|
| Flight time | N/A |
| Altitude | 36000 |
| Route | ULGIL1K ULGIL Z348 EKSEK DCT NAROX Z348 RENDO DCT ZUCKA DCT TOLTA DCT ABAMI Z717 NEREL T855 BATTY BATTY6B |
| Aircraft | B738/M-SDE2E3FGHIRWXY/LB1 |
Departure
| Time | 2026-04-30 14:26 |
|---|---|
| Airport | Copernicus Wrocław Airport (EPWR) |
Arrival
| Time | N/A |
|---|---|
| Airport | Brussels South Charleroi Airport (EBCI) |
| Time | Latitude | Longitude | Altitude | Speed | Heading |
|---|---|---|---|---|---|
| 2026-04-30 13:31 | 51.10996 | 16.87564 | 402 ft | 0 kts | 26° |
| 2026-04-30 13:50 | 51.10996 | 16.87563 | 429 ft | 0 kts | 26° |
| 2026-04-30 13:55 | 51.10995 | 16.87563 | 429 ft | 0 kts | 26° |
| 2026-04-30 14:17 | 51.10981 | 16.87552 | 399 ft | 4 kts | 26° |
| 2026-04-30 14:17 | 51.10961 | 16.87536 | 400 ft | 4 kts | 21° |
| 2026-04-30 14:17 | 51.10938 | 16.87532 | 399 ft | 4 kts | 330° |
| 2026-04-30 14:17 | 51.10921 | 16.87560 | 401 ft | 3 kts | 296° |
| 2026-04-30 14:18 | 51.10920 | 16.87565 | 401 ft | 0 kts | 296° |
| 2026-04-30 14:20 | 51.10928 | 16.87539 | 401 ft | 5 kts | 296° |
| 2026-04-30 14:21 | 51.10948 | 16.87468 | 399 ft | 8 kts | 293° |
| 2026-04-30 14:21 | 51.10912 | 16.87393 | 402 ft | 12 kts | 205° |
| 2026-04-30 14:21 | 51.10729 | 16.87254 | 403 ft | 11 kts | 206° |
| 2026-04-30 14:22 | 51.10665 | 16.87286 | 401 ft | 14 kts | 122° |
| 2026-04-30 14:22 | 51.10556 | 16.87645 | 400 ft | 23 kts | 116° |
| 2026-04-30 14:22 | 51.10481 | 16.87889 | 402 ft | 26 kts | 116° |
| 2026-04-30 14:23 | 51.10306 | 16.88452 | 405 ft | 31 kts | 115° |
| 2026-04-30 14:23 | 51.10106 | 16.89104 | 403 ft | 33 kts | 116° |
| 2026-04-30 14:24 | 51.09933 | 16.89669 | 403 ft | 14 kts | 120° |
| 2026-04-30 14:24 | 51.09892 | 16.89745 | 403 ft | 2 kts | 91° |
| 2026-04-30 14:25 | 51.09934 | 16.89665 | 403 ft | 21 kts | 295° |
| 2026-04-30 14:25 | 51.10564 | 16.87624 | 604 ft | 158 kts | 297° |
| 2026-04-30 14:26 | 51.11536 | 16.84359 | 2375 ft | 182 kts | 297° |
| 2026-04-30 14:26 | 51.12112 | 16.82413 | 2920 ft | 205 kts | 296° |
| 2026-04-30 14:26 | 51.12354 | 16.77807 | 4303 ft | 241 kts | 240° |
| 2026-04-30 14:27 | 51.11069 | 16.76079 | 5240 ft | 250 kts | 205° |
| 2026-04-30 14:27 | 51.09536 | 16.74756 | 6286 ft | 250 kts | 223° |
| 2026-04-30 14:27 | 51.08521 | 16.72494 | 7126 ft | 255 kts | 244° |
| 2026-04-30 14:28 | 51.06875 | 16.67414 | 9041 ft | 264 kts | 246° |
| 2026-04-30 14:28 | 51.05956 | 16.64835 | 10033 ft | 271 kts | 240° |
| 2026-04-30 14:28 | 51.04953 | 16.62250 | 10949 ft | 278 kts | 240° |
| 2026-04-30 14:28 | 51.03922 | 16.59606 | 11898 ft | 284 kts | 240° |
| 2026-04-30 14:29 | 51.01805 | 16.54132 | 13847 ft | 297 kts | 240° |
| 2026-04-30 14:29 | 51.00790 | 16.48998 | 15395 ft | 295 kts | 278° |
| 2026-04-30 14:30 | 51.02919 | 16.37250 | 16927 ft | 367 kts | 294° |
| 2026-04-30 14:31 | 51.04505 | 16.29435 | 18918 ft | 375 kts | 294° |
| 2026-04-30 14:31 | 51.06089 | 16.21394 | 20510 ft | 387 kts | 294° |
| 2026-04-30 14:31 | 51.06881 | 16.17337 | 21330 ft | 392 kts | 294° |
| 2026-04-30 14:32 | 51.08524 | 16.08894 | 22965 ft | 402 kts | 295° |
| 2026-04-30 14:32 | 51.09342 | 16.04673 | 23734 ft | 407 kts | 295° |
| 2026-04-30 14:32 | 51.10111 | 16.00297 | 24412 ft | 418 kts | 289° |
| 2026-04-30 14:33 | 51.10546 | 15.95880 | 25007 ft | 428 kts | 284° |
| 2026-04-30 14:33 | 51.11105 | 15.86311 | 26184 ft | 440 kts | 283° |
| 2026-04-30 14:33 | 51.11396 | 15.81417 | 26724 ft | 445 kts | 283° |
| 2026-04-30 14:34 | 51.11722 | 15.76496 | 27326 ft | 449 kts | 284° |
| 2026-04-30 14:34 | 51.12078 | 15.71543 | 27901 ft | 453 kts | 284° |
| 2026-04-30 14:34 | 51.12443 | 15.66529 | 28445 ft | 458 kts | 284° |
| 2026-04-30 14:34 | 51.12810 | 15.61468 | 28980 ft | 462 kts | 285° |
| 2026-04-30 14:35 | 51.13723 | 15.53073 | 29839 ft | 465 kts | 290° |
| 2026-04-30 14:35 | 51.14619 | 15.46301 | 30518 ft | 470 kts | 291° |
| 2026-04-30 14:35 | 51.15294 | 15.41255 | 30936 ft | 474 kts | 290° |
| 2026-04-30 14:36 | 51.15968 | 15.36098 | 31341 ft | 477 kts | 290° |
| 2026-04-30 14:36 | 51.16625 | 15.30923 | 31981 ft | 474 kts | 289° |
| 2026-04-30 14:36 | 51.17263 | 15.25783 | 32680 ft | 471 kts | 289° |
| 2026-04-30 14:36 | 51.17890 | 15.20685 | 33301 ft | 469 kts | 289° |
| 2026-04-30 14:37 | 51.18519 | 15.15583 | 33840 ft | 469 kts | 290° |
| 2026-04-30 14:37 | 51.19148 | 15.10485 | 34384 ft | 469 kts | 290° |
| 2026-04-30 14:37 | 51.19772 | 15.05392 | 34921 ft | 466 kts | 289° |
| 2026-04-30 14:37 | 51.20374 | 15.00331 | 35540 ft | 463 kts | 288° |
| 2026-04-30 14:38 | 51.20817 | 14.95423 | 35781 ft | 469 kts | 284° |
| 2026-04-30 14:38 | 51.21172 | 14.90248 | 36031 ft | 469 kts | 283° |
| 2026-04-30 14:38 | 51.21487 | 14.85084 | 36240 ft | 465 kts | 283° |
| 2026-04-30 14:38 | 51.21803 | 14.79979 | 36441 ft | 460 kts | 283° |
| 2026-04-30 14:39 | 51.22136 | 14.74908 | 36429 ft | 460 kts | 283° |
| 2026-04-30 14:39 | 51.22838 | 14.64766 | 36442 ft | 459 kts | 283° |
| 2026-04-30 14:40 | 51.23869 | 14.49570 | 36441 ft | 459 kts | 283° |
| 2026-04-30 14:40 | 51.24534 | 14.39496 | 36407 ft | 459 kts | 283° |
| 2026-04-30 14:41 | 51.25197 | 14.29369 | 36443 ft | 458 kts | 283° |
| 2026-04-30 14:41 | 51.25855 | 14.19241 | 36439 ft | 458 kts | 283° |
| 2026-04-30 14:42 | 51.26504 | 14.09118 | 36443 ft | 458 kts | 283° |
| 2026-04-30 14:42 | 51.27140 | 13.99105 | 36454 ft | 458 kts | 283° |
| 2026-04-30 14:43 | 51.27778 | 13.88983 | 36447 ft | 457 kts | 284° |
| 2026-04-30 14:43 | 51.28999 | 13.79130 | 36456 ft | 450 kts | 291° |
| 2026-04-30 14:44 | 51.30479 | 13.69418 | 36458 ft | 449 kts | 291° |
| 2026-04-30 14:44 | 51.31942 | 13.59686 | 36451 ft | 450 kts | 290° |
| 2026-04-30 14:45 | 51.33122 | 13.51584 | 36440 ft | 450 kts | 290° |
| 2026-04-30 14:45 | 51.34739 | 13.40235 | 36442 ft | 450 kts | 290° |
| 2026-04-30 14:46 | 51.36116 | 13.30482 | 36448 ft | 450 kts | 290° |
| 2026-04-30 14:46 | 51.37264 | 13.22304 | 36452 ft | 450 kts | 289° |
| 2026-04-30 14:47 | 51.38622 | 13.12578 | 36448 ft | 450 kts | 289° |
| 2026-04-30 14:47 | 51.39978 | 13.02802 | 36416 ft | 450 kts | 289° |
| 2026-04-30 14:48 | 51.41297 | 12.93226 | 36450 ft | 449 kts | 289° |
| 2026-04-30 14:48 | 51.42635 | 12.83454 | 36457 ft | 448 kts | 289° |
| 2026-04-30 14:49 | 51.43966 | 12.73676 | 36459 ft | 448 kts | 289° |
| 2026-04-30 14:49 | 51.45288 | 12.63893 | 36460 ft | 448 kts | 289° |
| 2026-04-30 14:50 | 51.47251 | 12.49239 | 36452 ft | 448 kts | 288° |
| 2026-04-30 14:51 | 51.49192 | 12.34597 | 36457 ft | 447 kts | 288° |
| 2026-04-30 14:52 | 51.51115 | 12.19954 | 36459 ft | 447 kts | 288° |
| 2026-04-30 14:52 | 51.53010 | 12.05366 | 36456 ft | 446 kts | 287° |
| 2026-04-30 14:53 | 51.54874 | 11.90868 | 36468 ft | 445 kts | 287° |
| 2026-04-30 14:54 | 51.57352 | 11.71363 | 36466 ft | 445 kts | 287° |
| 2026-04-30 14:55 | 51.59187 | 11.56728 | 36456 ft | 445 kts | 287° |
| 2026-04-30 14:56 | 51.61607 | 11.37203 | 36462 ft | 444 kts | 286° |
| 2026-04-30 14:57 | 51.63398 | 11.22570 | 36458 ft | 444 kts | 286° |
| 2026-04-30 14:58 | 51.65755 | 11.03085 | 36450 ft | 443 kts | 285° |
| 2026-04-30 14:58 | 51.67421 | 10.88621 | 36450 ft | 445 kts | 281° |
| 2026-04-30 15:00 | 51.67748 | 10.63487 | 36440 ft | 449 kts | 274° |
| 2026-04-30 15:01 | 51.67972 | 10.43376 | 36450 ft | 449 kts | 275° |
| 2026-04-30 15:01 | 51.68144 | 10.28276 | 36443 ft | 449 kts | 275° |
| 2026-04-30 15:02 | 51.68245 | 10.18272 | 36424 ft | 450 kts | 274° |
| 2026-04-30 15:03 | 51.68459 | 9.93410 | 36432 ft | 449 kts | 274° |
| 2026-04-30 15:04 | 51.68625 | 9.68228 | 36409 ft | 449 kts | 273° |
| 2026-04-30 15:06 | 51.67992 | 9.43167 | 36426 ft | 451 kts | 262° |
| 2026-04-30 15:07 | 51.65674 | 9.23296 | 36438 ft | 452 kts | 262° |
| 2026-04-30 15:08 | 51.63442 | 9.03338 | 36417 ft | 453 kts | 262° |
| 2026-04-30 15:09 | 51.60650 | 8.78536 | 36392 ft | 454 kts | 262° |
| 2026-04-30 15:10 | 51.58363 | 8.58612 | 36401 ft | 453 kts | 261° |
| 2026-04-30 15:11 | 51.54875 | 8.28804 | 36395 ft | 452 kts | 261° |
| 2026-04-30 15:13 | 51.51924 | 8.04111 | 36370 ft | 451 kts | 260° |
| 2026-04-30 15:14 | 51.49554 | 7.84614 | 35542 ft | 438 kts | 260° |
| 2026-04-30 15:14 | 51.47814 | 7.70469 | 34437 ft | 424 kts | 259° |
| 2026-04-30 15:16 | 51.44989 | 7.47771 | 32296 ft | 412 kts | 259° |
| 2026-04-30 15:17 | 51.42588 | 7.29975 | 30805 ft | 405 kts | 250° |
| 2026-04-30 15:18 | 51.34920 | 7.11715 | 28988 ft | 388 kts | 231° |
| 2026-04-30 15:19 | 51.30093 | 7.01490 | 27897 ft | 379 kts | 232° |